Time;durP1;ratioP1;P1;durP2;ratioP2;P2;SDS_P1;SDS_P2;PMS_P1;PMS_P2;Temp;Humidity;BMP_temperature;BMP_pressure;BME280_temperature;BME280_humidity;BME280_pressure;Samples;Min_cycle;Max_cycle;Signal;HPM_P1;HPM_P2
2023/08/05 00:02:04;;;;;;;;;;;;;;;;;;4988127;28;20367;-64
2023/08/05 00:04:30;;;;;;;;;;;;;;;;;;5006971;28;19932;-63
2023/08/05 00:06:56;;;;;;;;;;;;;;;;;;5006633;28;20013;-63
2023/08/05 00:09:22;;;;;;;;;;;;;;;;;;5005524;28;20344;-63
2023/08/05 00:11:48;;;;;;;;;;;;;;;;;;5006605;28;20315;-63
2023/08/05 00:14:14;;;;;;;;;;;;;;;;;;5006337;28;19932;-63
2023/08/05 00:16:40;;;;;;;;;;;;;;;;;;5005646;28;19925;-63
2023/08/05 00:19:06;;;;;;;;;;;;;;;;;;5006054;28;19932;-64
2023/08/05 00:21:32;;;;;;;;;;;;;;;;;;5006239;28;20466;-65
2023/08/05 00:23:58;;;;;;;;;;;;;;;;;;5005011;28;19936;-65
2023/08/05 00:26:24;;;;;;;;;;;;;;;;;;5005650;28;20028;-66
2023/08/05 00:28:50;;;;;;;;;;;;;;;;;;5006640;28;20012;-65
2023/08/05 00:31:16;;;;;;;;;;;;;;;;;;5005665;28;19987;-64
2023/08/05 00:33:41;;;;;;;;;;;;;;;;;;5004782;28;20667;-64
2023/08/05 00:36:07;;;;;;;;;;;;;;;;;;5005936;28;19930;-65
2023/08/05 00:38:33;;;;;;;;;;;;;;;;;;4988624;28;19925;-64
2023/08/05 00:40:59;;;;;;;;;;;;;;;;;;4987313;28;19922;-64
2023/08/05 00:43:25;;;;;;;;;;;;;;;;;;5005707;28;19929;-65
2023/08/05 00:45:51;;;;;;;;;;;;;;;;;;5005982;28;19922;-64
2023/08/05 00:48:17;;;;;;;;;;;;;;;;;;5004646;28;19948;-64
2023/08/05 00:50:43;;;;;;;;;;;;;;;;;;5005378;28;20458;-64
2023/08/05 00:53:09;;;;;;;;;;;;;;;;;;4996655;28;20016;-65
2023/08/05 00:55:35;;;;;;;;;;;;;;;;;;5003375;28;20021;-64
2023/08/05 00:58:01;;;;;;;;;;;;;;;;;;5005547;28;19926;-65
2023/08/05 01:00:27;;;;;;;;;;;;;;;;;;5005543;28;20249;-64
2023/08/05 01:02:52;;;;;;;;;;;;;;;;;;5004365;28;19947;-62
2023/08/05 01:05:18;;;;;;;;;;;;;;;;;;5005532;28;19935;-64
2023/08/05 01:10:13;;;;;;;;;;;;;;;;;;4966911;28;20407;-58
2023/08/05 01:12:39;;;;;;;;;;;;;;;;;;4982656;28;20001;-58
2023/08/05 01:15:05;;;;;;;;;;;;;;;;;;4975747;28;19934;-59
2023/08/05 01:17:31;;;;;;;;;;;;;;;;;;4980886;28;19973;-58
2023/08/05 01:19:57;;;;;;;;;;;;;;;;;;4985546;28;19980;-59
2023/08/05 01:22:23;;;;;;;;;;;;;;;;;;4983991;28;19988;-63
2023/08/05 01:24:49;;;;;;;;;;;;;;;;;;4984164;28;20180;-62
2023/08/05 01:27:14;;;;;;;;;;;;;;;;;;4984922;28;19936;-59
2023/08/05 01:29:40;;;;;;;;;;;;;;;;;;4985493;28;19933;-59
2023/08/05 01:32:07;;;;;;;;;;;;;;;;;;4984835;28;20016;-59
2023/08/05 01:34:33;;;;;;;;;;;;;;;;;;4985528;28;19983;-59
2023/08/05 01:36:59;;;;;;;;;;;;;;;;;;4984327;28;20008;-59
2023/08/05 01:39:24;;;;;;;;;;;;;;;;;;4985645;28;19949;-58
2023/08/05 01:41:50;;;;;;;;;;;;;;;;;;4986261;28;19932;-59
2023/08/05 01:44:16;;;;;;;;;;;;;;;;;;4985018;28;19972;-59
2023/08/05 01:46:42;;;;;;;;;;;;;;;;;;4984108;28;20060;-60
2023/08/05 01:49:08;;;;;;;;;;;;;;;;;;4985277;28;19933;-59
2023/08/05 01:51:34;;;;;;;;;;;;;;;;;;4984548;28;19934;-59
2023/08/05 01:54:00;;;;;;;;;;;;;;;;;;4984190;28;19926;-59
2023/08/05 01:56:26;;;;;;;;;;;;;;;;;;4985445;28;19930;-59
2023/08/05 01:58:52;;;;;;;;;;;;;;;;;;4985691;28;20478;-59
2023/08/05 02:01:18;;;;;;;;;;;;;;;;;;4984684;28;19934;-60
2023/08/05 02:03:44;;;;;;;;;;;;;;;;;;4984838;28;20036;-59
2023/08/05 02:06:10;;;;;;;;;;;;;;;;;;4984663;28;19925;-59
2023/08/05 02:08:35;;;;;;;;;;;;;;;;;;4983311;28;19925;-59
2023/08/05 02:11:03;;;;;;;;;;;;;;;;;;4984683;28;19926;-59
2023/08/05 02:13:29;;;;;;;;;;;;;;;;;;4985420;28;20040;-58
2023/08/05 02:15:55;;;;;;;;;;;;;;;;;;4984974;28;20016;-59
2023/08/05 02:18:21;;;;;;;;;;;;;;;;;;4984383;28;20430;-58
2023/08/05 02:20:47;;;;;;;;;;;;;;;;;;4984452;28;19933;-59
2023/08/05 02:23:13;;;;;;;;;;;;;;;;;;4983701;28;19929;-59
2023/08/05 02:25:39;;;;;;;;;;;;;;;;;;4984011;28;20052;-59
2023/08/05 02:28:05;;;;;;;;;;;;;;;;;;4984236;28;19922;-59
2023/08/05 02:30:31;;;;;;;;;;;;;;;;;;4984259;28;20081;-59
2023/08/05 02:32:56;;;;;;;;;;;;;;;;;;4983455;28;19933;-59
2023/08/05 02:35:23;;;;;;;;;;;;;;;;;;4984347;28;19940;-62
2023/08/05 02:37:48;;;;;;;;;;;;;;;;;;4966654;28;19926;-59
2023/08/05 02:40:14;;;;;;;;;;;;;;;;;;4983666;28;19949;-59
2023/08/05 02:42:40;;;;;;;;;;;;;;;;;;4967220;28;19926;-59
2023/08/05 02:45:06;;;;;;;;;;;;;;;;;;4984464;28;20306;-59
2023/08/05 02:47:32;;;;;;;;;;;;;;;;;;4983583;28;20100;-59
2023/08/05 02:49:58;;;;;;;;;;;;;;;;;;4983661;28;20392;-59
2023/08/05 02:52:24;;;;;;;;;;;;;;;;;;4983883;28;20016;-59
2023/08/05 02:54:50;;;;;;;;;;;;;;;;;;4984064;28;19926;-59
2023/08/05 02:57:16;;;;;;;;;;;;;;;;;;4984487;28;19957;-58
2023/08/05 02:59:42;;;;;;;;;;;;;;;;;;4984188;28;20024;-59
2023/08/05 03:02:07;;;;;;;;;;;;;;;;;;4983175;28;20374;-59
2023/08/05 03:04:33;;;;;;;;;;;;;;;;;;4965986;28;19944;-59
2023/08/05 03:06:59;;;;;;;;;;;;;;;;;;4983684;28;19933;-59
2023/08/05 03:09:25;;;;;;;;;;;;;;;;;;4983105;28;20376;-58
2023/08/05 03:11:51;;;;;;;;;;;;;;;;;;4983686;28;20622;-59
2023/08/05 03:14:17;;;;;;;;;;;;;;;;;;4983524;28;19959;-59
2023/08/05 03:16:43;;;;;;;;;;;;;;;;;;4983451;28;19936;-59
2023/08/05 03:19:09;;;;;;;;;;;;;;;;;;4986480;28;20468;-59
2023/08/05 03:21:35;;;;;;;;;;;;;;;;;;4987635;28;20458;-59
2023/08/05 03:24:01;;;;;;;;;;;;;;;;;;4988101;28;19921;-59
2023/08/05 03:26:27;;;;;;;;;;;;;;;;;;4987009;28;19925;-59
2023/08/05 03:28:53;;;;;;;;;;;;;;;;;;4987757;28;19926;-62
2023/08/05 03:31:19;;;;;;;;;;;;;;;;;;4987910;28;19941;-59
2023/08/05 03:33:45;;;;;;;;;;;;;;;;;;4987617;28;19934;-59
2023/08/05 03:36:11;;;;;;;;;;;;;;;;;;4987029;28;20009;-59
2023/08/05 03:38:36;;;;;;;;;;;;;;;;;;4987515;28;20008;-58
2023/08/05 03:41:05;;;;;;;;;;;;;;;;;;4986942;28;20348;-59
2023/08/05 03:43:32;;;;;;;;;;;;;;;;;;4987302;28;19926;-59
2023/08/05 03:45:58;;;;;;;;;;;;;;;;;;4987289;28;19972;-59
2023/08/05 03:48:24;;;;;;;;;;;;;;;;;;4986669;28;19922;-59
2023/08/05 03:50:50;;;;;;;;;;;;;;;;;;4987442;28;19975;-59
2023/08/05 03:53:16;;;;;;;;;;;;;;;;;;4986860;28;19929;-59
2023/08/05 03:55:42;;;;;;;;;;;;;;;;;;4986735;28;19926;-59
2023/08/05 03:58:08;;;;;;;;;;;;;;;;;;4987338;28;19930;-59
2023/08/05 04:00:36;;;;;;;;;;;;;;;;;;4987114;28;20367;-59
2023/08/05 04:03:02;;;;;;;;;;;;;;;;;;4986578;28;20276;-58
2023/08/05 04:05:28;;;;;;;;;;;;;;;;;;4987358;28;19933;-59
2023/08/05 04:07:54;;;;;;;;;;;;;;;;;;4986656;28;19926;-59
2023/08/05 04:10:22;;;;;;;;;;;;;;;;;;4987102;28;19933;-58
2023/08/05 04:12:48;;;;;;;;;;;;;;;;;;4986644;28;20255;-59
2023/08/05 04:15:14;;;;;;;;;;;;;;;;;;4987404;28;20402;-59
2023/08/05 04:17:42;;;;;;;;;;;;;;;;;;4985356;28;19972;-59
2023/08/05 04:20:08;;;;;;;;;;;;;;;;;;4986701;28;19949;-59
2023/08/05 04:22:35;;;;;;;;;;;;;;;;;;4986783;28;19957;-59
2023/08/05 04:25:01;;;;;;;;;;;;;;;;;;4986339;28;20396;-58
2023/08/05 04:27:27;;;;;;;;;;;;;;;;;;4986368;28;20463;-59
2023/08/05 04:29:53;;;;;;;;;;;;;;;;;;4985425;28;19928;-59
2023/08/05 04:32:20;;;;;;;;;;;;;;;;;;4986229;28;20660;-59
2023/08/05 04:34:46;;;;;;;;;;;;;;;;;;4968862;28;20371;-59
2023/08/05 04:37:12;;;;;;;;;;;;;;;;;;4985962;28;19933;-58
2023/08/05 04:39:38;;;;;;;;;;;;;;;;;;4986644;28;19991;-59
2023/08/05 04:42:04;;;;;;;;;;;;;;;;;;4985976;28;19930;-59
2023/08/05 04:44:30;;;;;;;;;;;;;;;;;;4986251;28;20028;-59
2023/08/05 04:46:56;;;;;;;;;;;;;;;;;;4985183;28;19973;-59
2023/08/05 04:49:22;;;;;;;;;;;;;;;;;;4986503;28;20024;-59
2023/08/05 04:51:48;;;;;;;;;;;;;;;;;;4985795;28;20505;-59
2023/08/05 04:54:14;;;;;;;;;;;;;;;;;;4986163;28;20020;-60
2023/08/05 04:56:39;;;;;;;;;;;;;;;;;;4985879;28;19930;-59
2023/08/05 04:59:05;;;;;;;;;;;;;;;;;;4985812;28;19925;-59
2023/08/05 05:01:32;;;;;;;;;;;;;;;;;;4984947;28;19980;-59
2023/08/05 05:03:58;;;;;;;;;;;;;;;;;;4986147;28;19929;-59
2023/08/05 05:06:24;;;;;;;;;;;;;;;;;;4986410;28;19932;-60
2023/08/05 05:08:50;;;;;;;;;;;;;;;;;;4985472;28;19926;-59
2023/08/05 05:11:16;;;;;;;;;;;;;;;;;;4984792;28;19932;-59
2023/08/05 05:13:43;;;;;;;;;;;;;;;;;;4986105;28;20450;-59
2023/08/05 05:16:10;;;;;;;;;;;;;;;;;;4984489;28;20446;-59
2023/08/05 05:18:36;;;;;;;;;;;;;;;;;;4985627;28;19929;-59
2023/08/05 05:21:01;;;;;;;;;;;;;;;;;;4986237;28;20095;-60
2023/08/05 05:23:27;;;;;;;;;;;;;;;;;;4985503;28;20459;-59
2023/08/05 05:25:53;;;;;;;;;;;;;;;;;;4984768;28;19925;-59
2023/08/05 05:28:19;;;;;;;;;;;;;;;;;;4985584;28;20020;-59
2023/08/05 05:30:45;;;;;;;;;;;;;;;;;;4984920;28;19932;-60
2023/08/05 05:33:11;;;;;;;;;;;;;;;;;;4985028;28;20012;-59
2023/08/05 05:35:37;;;;;;;;;;;;;;;;;;4985238;28;20372;-59
2023/08/05 05:38:03;;;;;;;;;;;;;;;;;;4968124;28;19930;-59
2023/08/05 05:40:29;;;;;;;;;;;;;;;;;;4984658;28;19926;-60
2023/08/05 05:42:55;;;;;;;;;;;;;;;;;;4984385;28;20005;-59
2023/08/05 05:45:21;;;;;;;;;;;;;;;;;;4985245;28;21021;-59
2023/08/05 05:47:47;;;;;;;;;;;;;;;;;;4984427;28;19925;-60
2023/08/05 05:50:13;;;;;;;;;;;;;;;;;;4985241;28;20400;-59
2023/08/05 05:52:39;;;;;;;;;;;;;;;;;;4985042;28;19929;-59
2023/08/05 05:55:04;;;;;;;;;;;;;;;;;;4984937;28;20046;-59
2023/08/05 05:57:30;;;;;;;;;;;;;;;;;;4983814;28;20374;-59
2023/08/05 05:59:56;;;;;;;;;;;;;;;;;;4985209;28;20415;-59
2023/08/05 06:02:22;;;;;;;;;;;;;;;;;;4984556;28;19933;-60
2023/08/05 06:04:50;;;;;;;;;;;;;;;;;;4984953;28;19930;-59
2023/08/05 06:07:15;;;;;;;;;;;;;;;;;;4985163;28;20016;-59
2023/08/05 06:09:41;;;;;;;;;;;;;;;;;;4984453;28;20021;-59
2023/08/05 06:12:10;;;;;;;;;;;;;;;;;;4984291;28;19933;-59
2023/08/05 06:14:36;;;;;;;;;;;;;;;;;;4984195;28;19936;-59
2023/08/05 06:17:02;;;;;;;;;;;;;;;;;;4983970;28;19930;-59
2023/08/05 06:19:28;;;;;;;;;;;;;;;;;;4984946;28;19930;-59
2023/08/05 06:21:54;;;;;;;;;;;;;;;;;;4984330;28;19926;-58
2023/08/05 06:24:20;;;;;;;;;;;;;;;;;;4984844;28;19925;-59
2023/08/05 06:26:46;;;;;;;;;;;;;;;;;;4983919;28;19974;-59
2023/08/05 06:29:12;;;;;;;;;;;;;;;;;;4984272;28;20331;-59
2023/08/05 06:31:38;;;;;;;;;;;;;;;;;;4966068;28;19948;-59
2023/08/05 06:34:04;;;;;;;;;;;;;;;;;;4984678;28;19932;-59
2023/08/05 06:36:30;;;;;;;;;;;;;;;;;;4983975;28;19926;-58
2023/08/05 06:38:56;;;;;;;;;;;;;;;;;;4983841;28;19933;-60
2023/08/05 06:41:23;;;;;;;;;;;;;;;;;;4984927;28;20048;-60
2023/08/05 06:43:50;;;;;;;;;;;;;;;;;;4983951;28;19926;-59
2023/08/05 06:46:16;;;;;;;;;;;;;;;;;;4982986;28;19925;-60
2023/08/05 06:48:41;;;;;;;;;;;;;;;;;;4983723;28;19979;-59
2023/08/05 06:51:07;;;;;;;;;;;;;;;;;;4984137;28;19926;-60
2023/08/05 06:53:34;;;;;;;;;;;;;;;;;;4983456;28;20611;-59
2023/08/05 06:56:00;;;;;;;;;;;;;;;;;;4983550;28;19925;-60
2023/08/05 06:58:26;;;;;;;;;;;;;;;;;;4983139;28;19933;-60
2023/08/05 07:00:52;;;;;;;;;;;;;;;;;;4983876;28;20303;-60
2023/08/05 07:03:18;;;;;;;;;;;;;;;;;;4984125;28;19926;-62
2023/08/05 07:05:43;;;;;;;;;;;;;;;;;;4983475;28;20671;-61
2023/08/05 07:08:10;;;;;;;;;;;;;;;;;;4983732;28;19940;-61
2023/08/05 07:10:36;;;;;;;;;;;;;;;;;;4983493;28;19929;-61
2023/08/05 07:13:05;;;;;;;;;;;;;;;;;;4982926;28;20409;-61
2023/08/05 07:15:31;;;;;;;;;;;;;;;;;;4983325;28;20063;-60
2023/08/05 07:17:57;;;;;;;;;;;;;;;;;;4983754;28;20393;-61
2023/08/05 07:20:23;;;;;;;;;;;;;;;;;;4966270;28;19929;-61
2023/08/05 07:22:49;;;;;;;;;;;;;;;;;;4984050;28;20283;-60
2023/08/05 07:25:15;;;;;;;;;;;;;;;;;;4983897;28;19925;-61
2023/08/05 07:27:41;;;;;;;;;;;;;;;;;;4983281;28;19926;-60
2023/08/05 07:30:07;;;;;;;;;;;;;;;;;;4983791;28;20399;-60
2023/08/05 07:32:33;;;;;;;;;;;;;;;;;;4982799;28;19930;-60
2023/08/05 07:34:59;;;;;;;;;;;;;;;;;;4983732;28;19937;-61
2023/08/05 07:37:25;;;;;;;;;;;;;;;;;;4983560;28;19946;-59
2023/08/05 07:39:51;;;;;;;;;;;;;;;;;;4983769;28;20003;-58
2023/08/05 07:42:19;;;;;;;;;;;;;;;;;;4983113;28;19973;-58
2023/08/05 07:44:46;;;;;;;;;;;;;;;;;;4983545;28;19981;-58
2023/08/05 07:47:12;;;;;;;;;;;;;;;;;;4982472;28;19925;-58
2023/08/05 07:49:38;;;;;;;;;;;;;;;;;;4983515;28;19980;-58
2023/08/05 07:52:04;;;;;;;;;;;;;;;;;;4983534;28;20013;-57
2023/08/05 07:54:30;;;;;;;;;;;;;;;;;;4965902;28;20013;-58
2023/08/05 07:56:58;;;;;;;;;;;;;;;;;;4983013;28;20020;-56
2023/08/05 07:59:25;;;;;;;;;;;;;;;;;;4982641;28;19926;-58
2023/08/05 08:01:53;;;;;;;;;;;;;;;;;;4983058;28;20954;-58
2023/08/05 08:04:19;;;;;;;;;;;;;;;;;;4984821;28;19929;-57
2023/08/05 08:06:45;;;;;;;;;;;;;;;;;;4986541;28;19925;-58
2023/08/05 08:09:12;;;;;;;;;;;;;;;;;;4986678;28;19992;-58
2023/08/05 08:11:38;;;;;;;;;;;;;;;;;;4986848;28;19937;-57
2023/08/05 08:14:04;;;;;;;;;;;;;;;;;;4986807;28;19926;-58
2023/08/05 08:16:30;;;;;;;;;;;;;;;;;;4985944;28;19926;-58
2023/08/05 08:18:56;;;;;;;;;;;;;;;;;;4986972;28;19933;-58
2023/08/05 08:21:22;;;;;;;;;;;;;;;;;;4987396;28;19981;-58
2023/08/05 08:23:48;;;;;;;;;;;;;;;;;;4986821;28;19980;-58
2023/08/05 08:26:14;;;;;;;;;;;;;;;;;;4987052;28;19926;-58
2023/08/05 08:28:40;;;;;;;;;;;;;;;;;;4985676;28;19945;-57
2023/08/05 08:31:06;;;;;;;;;;;;;;;;;;4985480;28;20407;-58
2023/08/05 08:33:32;;;;;;;;;;;;;;;;;;4986942;28;19932;-57
2023/08/05 08:35:57;;;;;;;;;;;;;;;;;;4985867;28;19925;-58
2023/08/05 08:38:23;;;;;;;;;;;;;;;;;;4986258;28;19933;-58
2023/08/05 08:40:49;;;;;;;;;;;;;;;;;;4986709;28;19980;-57
2023/08/05 08:43:15;;;;;;;;;;;;;;;;;;4985672;28;19933;-57
2023/08/05 08:45:41;;;;;;;;;;;;;;;;;;4968222;28;19948;-57
2023/08/05 08:48:09;;;;;;;;;;;;;;;;;;4986478;28;20343;-57
2023/08/05 08:50:35;;;;;;;;;;;;;;;;;;4986258;28;19933;-58
2023/08/05 08:53:01;;;;;;;;;;;;;;;;;;4985753;28;19926;-58
2023/08/05 08:55:27;;;;;;;;;;;;;;;;;;4986050;28;19926;-57
2023/08/05 08:57:53;;;;;;;;;;;;;;;;;;4985463;28;20700;-59
2023/08/05 09:00:18;;;;;;;;;;;;;;;;;;4985188;28;19930;-58
2023/08/05 09:02:44;;;;;;;;;;;;;;;;;;4985664;28;19926;-58
2023/08/05 09:05:11;;;;;;;;;;;;;;;;;;4985294;28;19922;-57
2023/08/05 09:07:36;;;;;;;;;;;;;;;;;;4985017;28;19932;-57
2023/08/05 09:10:02;;;;;;;;;;;;;;;;;;4985377;28;19930;-58
2023/08/05 09:12:30;;;;;;;;;;;;;;;;;;4985635;28;19930;-58
2023/08/05 09:14:56;;;;;;;;;;;;;;;;;;4984318;28;20613;-58
2023/08/05 09:17:22;;;;;;;;;;;;;;;;;;4983577;28;19926;-57
2023/08/05 09:19:48;;;;;;;;;;;;;;;;;;4984193;28;19926;-58
2023/08/05 09:22:14;;;;;;;;;;;;;;;;;;4984847;28;20004;-58
2023/08/05 09:24:40;;;;;;;;;;;;;;;;;;4984561;28;20069;-57
2023/08/05 09:27:06;;;;;;;;;;;;;;;;;;4984209;28;19926;-58
2023/08/05 09:29:36;;;;;;;;;;;;;;;;;;4983857;28;19929;-58
2023/08/05 09:32:02;;;;;;;;;;;;;;;;;;4984507;28;20387;-58
2023/08/05 09:34:28;;;;;;;;;;;;;;;;;;4985484;28;19926;-58
2023/08/05 09:36:53;;;;;;;;;;;;;;;;;;4985267;28;19929;-59
2023/08/05 09:39:19;;;;;;;;;;;;;;;;;;4985515;28;19949;-58
2023/08/05 09:41:46;;;;;;;;;;;;;;;;;;4985332;28;20044;-58
2023/08/05 09:44:12;;;;;;;;;;;;;;;;;;4984366;28;19926;-58
2023/08/05 09:46:38;;;;;;;;;;;;;;;;;;4983984;28;20623;-59
2023/08/05 09:49:03;;;;;;;;;;;;;;;;;;4985360;28;19932;-58
2023/08/05 09:51:30;;;;;;;;;;;;;;;;;;4984865;28;20047;-58
2023/08/05 09:53:56;;;;;;;;;;;;;;;;;;4984340;28;20443;-58
2023/08/05 09:56:22;;;;;;;;;;;;;;;;;;4985375;28;20009;-59
2023/08/05 09:58:48;;;;;;;;;;;;;;;;;;4984631;28;19926;-59
2023/08/05 10:01:14;;;;;;;;;;;;;;;;;;4983397;28;20438;-59
2023/08/05 10:03:40;;;;;;;;;;;;;;;;;;4984665;28;19932;-59
2023/08/05 10:06:07;;;;;;;;;;;;;;;;;;4984674;28;19922;-59
2023/08/05 10:08:35;;;;;;;;;;;;;;;;;;4984213;28;19988;-59
2023/08/05 10:11:01;;;;;;;;;;;;;;;;;;4984948;28;19925;-58
2023/08/05 10:13:27;;;;;;;;;;;;;;;;;;4983629;28;20584;-58
2023/08/05 10:15:53;;;;;;;;;;;;;;;;;;4983916;28;19930;-63
2023/08/05 10:18:19;;;;;;;;;;;;;;;;;;4983138;28;20618;-58
2023/08/05 10:20:44;;;;;;;;;;;;;;;;;;4983153;28;19926;-58
2023/08/05 10:23:13;;;;;;;;;;;;;;;;;;4966737;28;19926;-58
2023/08/05 10:25:42;;;;;;;;;;;;;;;;;;4984591;28;19934;-58
2023/08/05 10:28:11;;;;;;;;;;;;;;;;;;4983471;28;19925;-58
2023/08/05 10:30:37;;;;;;;;;;;;;;;;;;4983118;28;19957;-59
2023/08/05 10:33:02;;;;;;;;;;;;;;;;;;4966848;28;19988;-59
2023/08/05 10:35:29;;;;;;;;;;;;;;;;;;4984330;28;19929;-59
2023/08/05 10:37:54;;;;;;;;;;;;;;;;;;4984405;28;19933;-59
2023/08/05 10:40:20;;;;;;;;;;;;;;;;;;4984561;28;20646;-59
2023/08/05 10:42:46;;;;;;;;;;;;;;;;;;4983366;28;20406;-60
2023/08/05 10:45:12;;;;;;;;;;;;;;;;;;4983498;28;19929;-60
2023/08/05 10:47:38;;;;;;;;;;;;;;;;;;4984548;28;19922;-59
2023/08/05 10:50:04;;;;;;;;;;;;;;;;;;4983810;28;19926;-59
2023/08/05 10:52:30;;;;;;;;;;;;;;;;;;4984081;28;19941;-59
2023/08/05 10:54:56;;;;;;;;;;;;;;;;;;4983764;28;19925;-60
2023/08/05 10:57:22;;;;;;;;;;;;;;;;;;4983978;28;19926;-60
2023/08/05 10:59:48;;;;;;;;;;;;;;;;;;4983647;28;19933;-60
2023/08/05 11:02:14;;;;;;;;;;;;;;;;;;4983699;28;20590;-60
2023/08/05 11:04:40;;;;;;;;;;;;;;;;;;4983944;28;19953;-60
2023/08/05 11:07:05;;;;;;;;;;;;;;;;;;4984073;28;19933;-60
2023/08/05 11:09:31;;;;;;;;;;;;;;;;;;4983806;28;19926;-60
2023/08/05 11:11:57;;;;;;;;;;;;;;;;;;4983769;28;19988;-60
2023/08/05 11:14:26;;;;;;;;;;;;;;;;;;4983120;28;19929;-61
2023/08/05 11:16:52;;;;;;;;;;;;;;;;;;4983785;28;19933;-60
2023/08/05 11:19:18;;;;;;;;;;;;;;;;;;4983891;28;20184;-60
2023/08/05 11:21:44;;;;;;;;;;;;;;;;;;4983789;28;19938;-60
2023/08/05 11:24:10;;;;;;;;;;;;;;;;;;4983844;28;19925;-60
2023/08/05 11:26:35;;;;;;;;;;;;;;;;;;4983550;28;19937;-60
2023/08/05 11:29:01;;;;;;;;;;;;;;;;;;4982443;28;20004;-60
2023/08/05 11:31:28;;;;;;;;;;;;;;;;;;4982916;28;19926;-59
2023/08/05 11:33:53;;;;;;;;;;;;;;;;;;4983320;28;20017;-61
2023/08/05 11:36:19;;;;;;;;;;;;;;;;;;4983701;28;20108;-60
2023/08/05 11:38:45;;;;;;;;;;;;;;;;;;4983893;28;20362;-60
2023/08/05 11:41:11;;;;;;;;;;;;;;;;;;4987174;28;19925;-60
2023/08/05 11:43:39;;;;;;;;;;;;;;;;;;4987357;28;20064;-60
2023/08/05 11:46:05;;;;;;;;;;;;;;;;;;4986443;28;19926;-60
2023/08/05 11:48:32;;;;;;;;;;;;;;;;;;4987007;28;19929;-59
2023/08/05 11:50:58;;;;;;;;;;;;;;;;;;4986652;28;19973;-58
2023/08/05 11:53:24;;;;;;;;;;;;;;;;;;4987490;28;20007;-61
2023/08/05 11:55:50;;;;;;;;;;;;;;;;;;4987515;28;19933;-61
2023/08/05 11:58:16;;;;;;;;;;;;;;;;;;4986841;28;20406;-60
2023/08/05 12:00:43;;;;;;;;;;;;;;;;;;4985612;28;20794;-60
2023/08/05 12:03:09;;;;;;;;;;;;;;;;;;4987837;28;19930;-60
2023/08/05 12:05:35;;;;;;;;;;;;;;;;;;4987142;28;19930;-61
2023/08/05 12:08:01;;;;;;;;;;;;;;;;;;4986792;28;19929;-60
2023/08/05 12:10:27;;;;;;;;;;;;;;;;;;4987223;28;20423;-60
2023/08/05 12:12:53;;;;;;;;;;;;;;;;;;4986887;28;19933;-61
2023/08/05 12:15:24;;;;;;;;;;;;;;;;;;4985736;28;19952;-60
2023/08/05 12:17:50;;;;;;;;;;;;;;;;;;4986846;28;19984;-60
2023/08/05 12:20:16;;;;;;;;;;;;;;;;;;4987366;28;19925;-60
2023/08/05 12:22:42;;;;;;;;;;;;;;;;;;4986765;28;19926;-60
2023/08/05 12:25:07;;;;;;;;;;;;;;;;;;4986282;28;19929;-60
2023/08/05 12:27:33;;;;;;;;;;;;;;;;;;4986388;28;19930;-60
2023/08/05 12:29:59;;;;;;;;;;;;;;;;;;4985668;28;19984;-60
2023/08/05 12:32:25;;;;;;;;;;;;;;;;;;4986583;28;20371;-61
2023/08/05 12:34:51;;;;;;;;;;;;;;;;;;4986539;28;19925;-60
2023/08/05 12:37:17;;;;;;;;;;;;;;;;;;4985885;28;19936;-60
2023/08/05 12:39:43;;;;;;;;;;;;;;;;;;4986449;28;20339;-62
2023/08/05 12:42:09;;;;;;;;;;;;;;;;;;4986176;28;19941;-60
2023/08/05 12:44:35;;;;;;;;;;;;;;;;;;4985455;28;19926;-61
2023/08/05 12:47:01;;;;;;;;;;;;;;;;;;4986595;28;19925;-61
2023/08/05 12:49:27;;;;;;;;;;;;;;;;;;4985932;28;20272;-60
2023/08/05 12:51:53;;;;;;;;;;;;;;;;;;4984462;28;19930;-61
2023/08/05 12:54:19;;;;;;;;;;;;;;;;;;4986476;28;20342;-60
2023/08/05 12:56:45;;;;;;;;;;;;;;;;;;4986101;28;20277;-60
2023/08/05 12:59:11;;;;;;;;;;;;;;;;;;4985186;28;19926;-60
2023/08/05 13:01:38;;;;;;;;;;;;;;;;;;4985745;28;20379;-60
2023/08/05 13:04:03;;;;;;;;;;;;;;;;;;4985907;28;19925;-60
2023/08/05 13:06:29;;;;;;;;;;;;;;;;;;4985667;28;19940;-60
2023/08/05 13:08:55;;;;;;;;;;;;;;;;;;4984950;28;19932;-60
2023/08/05 13:11:21;;;;;;;;;;;;;;;;;;4986838;28;19925;-60
2023/08/05 13:13:47;;;;;;;;;;;;;;;;;;4967831;28;19936;-60
2023/08/05 13:16:13;;;;;;;;;;;;;;;;;;4983918;28;20572;-60
2023/08/05 13:18:39;;;;;;;;;;;;;;;;;;4986357;28;19941;-60
2023/08/05 13:21:05;;;;;;;;;;;;;;;;;;4985758;28;19936;-60
2023/08/05 13:23:31;;;;;;;;;;;;;;;;;;4985333;28;20342;-59
2023/08/05 13:25:57;;;;;;;;;;;;;;;;;;4985671;28;19925;-60
2023/08/05 13:28:23;;;;;;;;;;;;;;;;;;4985635;28;19948;-60
2023/08/05 13:30:49;;;;;;;;;;;;;;;;;;4984771;28;19926;-59
2023/08/05 13:33:15;;;;;;;;;;;;;;;;;;4985367;28;19933;-60
2023/08/05 13:35:41;;;;;;;;;;;;;;;;;;4985610;28;19932;-59
2023/08/05 13:38:07;;;;;;;;;;;;;;;;;;4984506;28;19925;-60
2023/08/05 13:40:33;;;;;;;;;;;;;;;;;;4985156;28;19926;-60
2023/08/05 13:42:59;;;;;;;;;;;;;;;;;;4986018;28;19988;-59
2023/08/05 13:45:25;;;;;;;;;;;;;;;;;;4983831;28;20333;-59
2023/08/05 13:47:52;;;;;;;;;;;;;;;;;;4983377;28;19932;-60
2023/08/05 13:50:19;;;;;;;;;;;;;;;;;;4984953;28;20434;-59
2023/08/05 13:52:45;;;;;;;;;;;;;;;;;;4983483;28;19965;-59
2023/08/05 13:55:11;;;;;;;;;;;;;;;;;;4983791;28;20426;-59
2023/08/05 13:57:37;;;;;;;;;;;;;;;;;;4983671;28;20024;-59
2023/08/05 14:00:03;;;;;;;;;;;;;;;;;;4965948;28;19936;-61
2023/08/05 14:02:29;;;;;;;;;;;;;;;;;;4983711;28;20454;-60
2023/08/05 14:04:55;;;;;;;;;;;;;;;;;;4967264;28;19930;-60
2023/08/05 14:07:21;;;;;;;;;;;;;;;;;;4985330;28;19926;-59
2023/08/05 14:09:47;;;;;;;;;;;;;;;;;;4984501;28;19930;-59
2023/08/05 14:12:13;;;;;;;;;;;;;;;;;;4966853;28;20044;-60
2023/08/05 14:14:39;;;;;;;;;;;;;;;;;;4984311;28;19921;-58
2023/08/05 14:17:05;;;;;;;;;;;;;;;;;;4983191;28;19926;-58
2023/08/05 14:19:32;;;;;;;;;;;;;;;;;;4984341;28;20029;-58
2023/08/05 14:21:58;;;;;;;;;;;;;;;;;;4984224;28;19932;-58
2023/08/05 14:24:24;;;;;;;;;;;;;;;;;;4984141;28;19925;-58
2023/08/05 14:26:50;;;;;;;;;;;;;;;;;;4966919;28;20026;-58
2023/08/05 14:29:16;;;;;;;;;;;;;;;;;;4983735;28;19930;-59
2023/08/05 14:31:42;;;;;;;;;;;;;;;;;;4983833;28;19929;-58
2023/08/05 14:34:09;;;;;;;;;;;;;;;;;;4984515;28;19926;-60
2023/08/05 14:36:35;;;;;;;;;;;;;;;;;;4983252;28;19925;-60
2023/08/05 14:39:01;;;;;;;;;;;;;;;;;;4983413;28;20036;-60
2023/08/05 14:41:30;;;;;;;;;;;;;;;;;;4984459;28;20408;-60
2023/08/05 14:43:56;;;;;;;;;;;;;;;;;;4982982;28;20037;-60
2023/08/05 14:46:23;;;;;;;;;;;;;;;;;;4981555;28;20443;-59
2023/08/05 14:48:49;;;;;;;;;;;;;;;;;;4983838;28;20008;-59
2023/08/05 14:51:15;;;;;;;;;;;;;;;;;;4983544;28;20017;-60
2023/08/05 14:53:40;;;;;;;;;;;;;;;;;;4984108;28;20592;-60
2023/08/05 14:56:06;;;;;;;;;;;;;;;;;;4983814;28;19926;-59
2023/08/05 14:58:32;;;;;;;;;;;;;;;;;;4984263;28;19926;-59
2023/08/05 15:00:58;;;;;;;;;;;;;;;;;;4982654;28;20591;-59
2023/08/05 15:03:24;;;;;;;;;;;;;;;;;;4983637;28;20660;-61
2023/08/05 15:05:50;;;;;;;;;;;;;;;;;;4974956;28;19925;-60
2023/08/05 15:08:16;;;;;;;;;;;;;;;;;;4981329;28;19929;-59
2023/08/05 15:10:42;;;;;;;;;;;;;;;;;;4983385;28;19926;-59
2023/08/05 15:13:08;;;;;;;;;;;;;;;;;;4983649;28;19933;-59
2023/08/05 15:15:34;;;;;;;;;;;;;;;;;;4982940;28;19925;-59
2023/08/05 15:18:00;;;;;;;;;;;;;;;;;;4982972;28;20027;-59
2023/08/05 15:20:25;;;;;;;;;;;;;;;;;;4966143;28;19936;-59
2023/08/05 15:22:51;;;;;;;;;;;;;;;;;;4984265;28;19930;-59
2023/08/05 15:25:17;;;;;;;;;;;;;;;;;;4983776;28;19989;-60
2023/08/05 15:27:43;;;;;;;;;;;;;;;;;;4983859;28;20558;-60
2023/08/05 15:30:10;;;;;;;;;;;;;;;;;;4982968;28;19934;-60
2023/08/05 15:32:37;;;;;;;;;;;;;;;;;;4982961;28;19933;-61
2023/08/05 15:35:03;;;;;;;;;;;;;;;;;;4983279;28;20012;-61
2023/08/05 15:37:29;;;;;;;;;;;;;;;;;;4983630;28;20029;-60
2023/08/05 15:39:56;;;;;;;;;;;;;;;;;;4983884;28;19941;-60
2023/08/05 15:42:22;;;;;;;;;;;;;;;;;;4983609;28;19925;-59
2023/08/05 15:44:48;;;;;;;;;;;;;;;;;;4983329;28;19940;-60
2023/08/05 15:47:14;;;;;;;;;;;;;;;;;;4982514;28;20013;-59
2023/08/05 15:49:39;;;;;;;;;;;;;;;;;;4983839;28;20047;-59
2023/08/05 15:52:05;;;;;;;;;;;;;;;;;;4983127;28;20435;-59
2023/08/05 15:54:31;;;;;;;;;;;;;;;;;;4983868;28;20669;-58
2023/08/05 15:57:02;;;;;;;;;;;;;;;;;;4966154;28;19925;-59
2023/08/05 15:59:28;;;;;;;;;;;;;;;;;;4982784;28;19933;-60
2023/08/05 16:01:54;;;;;;;;;;;;;;;;;;4982529;28;19926;-59
2023/08/05 16:04:20;;;;;;;;;;;;;;;;;;4983751;28;19926;-59
2023/08/05 16:06:47;;;;;;;;;;;;;;;;;;4983207;28;19926;-60
2023/08/05 16:09:13;;;;;;;;;;;;;;;;;;4983191;28;19936;-61
2023/08/05 16:11:39;;;;;;;;;;;;;;;;;;4983282;28;19933;-59
2023/08/05 16:14:05;;;;;;;;;;;;;;;;;;4983022;28;19933;-60
2023/08/05 16:16:31;;;;;;;;;;;;;;;;;;4982495;28;19929;-60
2023/08/05 16:18:57;;;;;;;;;;;;;;;;;;4983064;28;20149;-60
2023/08/05 16:21:23;;;;;;;;;;;;;;;;;;4983328;28;19953;-60
2023/08/05 16:23:51;;;;;;;;;;;;;;;;;;4966284;28;19921;-60
2023/08/05 16:26:17;;;;;;;;;;;;;;;;;;4985811;28;20384;-59
2023/08/05 16:28:43;;;;;;;;;;;;;;;;;;4986455;28;19933;-59
2023/08/05 16:31:09;;;;;;;;;;;;;;;;;;4985744;28;20027;-59
2023/08/05 16:33:36;;;;;;;;;;;;;;;;;;4986062;28;20005;-59
2023/08/05 16:36:02;;;;;;;;;;;;;;;;;;4986650;28;19922;-58
2023/08/05 16:38:28;;;;;;;;;;;;;;;;;;4982377;28;19941;-59
2023/08/05 16:40:54;;;;;;;;;;;;;;;;;;4984298;28;19930;-59